Gode Airport


Codes: HAGO/GDE
Name: Gode Airport
City: Gode
Country: Ethiopia
Elevation: 834 ft.
Wikipedia:

Photos at Gode Airport


   Photos courtesy of SpottingLog. You can add your own sightings and photos by signing up for a free trial today.



No photos found.

Weather at Gode Airport


Time (UTC)DescriptionTempratureWindCloud coverageVisibilityPressureHumidity
15-Apr-2024 18:00Overcast Clouds34°C11 mph, SW100%10000m1008hPa41%
15-Apr-2024 21:00Overcast Clouds33°C11 mph, S100%10000m1009hPa47%
16-Apr-2024 00:00Overcast Clouds31°C7 mph, S100%10000m1008hPa50%
16-Apr-2024 03:00Light Rain28°C16 mph, S88%10000m1010hPa64%
16-Apr-2024 06:00Overcast Clouds31°C18 mph, SW91%10000m1012hPa54%
16-Apr-2024 09:00Overcast Clouds34°C16 mph, SW100%10000m1010hPa41%
16-Apr-2024 12:00Overcast Clouds36°C11 mph, SW100%10000m1007hPa34%
16-Apr-2024 15:00Overcast Clouds35°C9 mph, SW100%10000m1007hPa35%
16-Apr-2024 18:00Overcast Clouds33°C16 mph, S100%10000m1009hPa44%
16-Apr-2024 21:00Broken Clouds31°C16 mph, S83%10000m1009hPa53%
17-Apr-2024 00:00Scattered Clouds30°C9 mph, SW49%10000m1008hPa57%
17-Apr-2024 03:00Clear Sky29°C4 mph, S3%10000m1010hPa59%
17-Apr-2024 06:00Clear Sky32°C11 mph, SW6%10000m1012hPa48%
17-Apr-2024 09:00Broken Clouds36°C11 mph, SW66%10000m1009hPa37%
17-Apr-2024 12:00Broken Clouds36°C11 mph, S79%10000m1006hPa35%
17-Apr-2024 15:00Broken Clouds35°C9 mph, SW63%10000m1007hPa35%
17-Apr-2024 18:00Broken Clouds34°C4 mph, SW54%10000m1009hPa39%
17-Apr-2024 21:00Broken Clouds33°C9 mph, S66%10000m1008hPa41%
18-Apr-2024 00:00Scattered Clouds31°C9 mph, S49%10000m1008hPa48%
18-Apr-2024 03:00Light Rain30°C9 mph, S59%10000m1010hPa55%
18-Apr-2024 06:00Broken Clouds33°C13 mph, SW64%10000m1012hPa49%
18-Apr-2024 09:00Broken Clouds35°C11 mph, SW73%10000m1009hPa39%
18-Apr-2024 12:00Overcast Clouds36°C7 mph, SW86%10000m1006hPa36%
18-Apr-2024 15:00Light Rain34°C9 mph, SW97%10000m1007hPa40%
18-Apr-2024 18:00Light Rain33°C9 mph, S97%10000m1009hPa43%
18-Apr-2024 21:00Overcast Clouds32°C11 mph, S98%10000m1009hPa50%
19-Apr-2024 00:00Light Rain30°C13 mph, SW83%10000m1008hPa60%
19-Apr-2024 03:00Light Rain28°C13 mph, SW71%10000m1010hPa66%
19-Apr-2024 06:00Light Rain30°C16 mph, SW82%10000m1011hPa59%
19-Apr-2024 09:00Light Rain32°C9 mph, SW99%10000m1009hPa48%
19-Apr-2024 12:00Overcast Clouds34°C9 mph, SW99%10000m1006hPa44%
19-Apr-2024 15:00Overcast Clouds33°C9 mph, SW100%10000m1006hPa44%
19-Apr-2024 18:00Overcast Clouds33°C7 mph, S100%10000m1007hPa44%
19-Apr-2024 21:00Overcast Clouds32°C7 mph, SE100%10000m1007hPa46%
20-Apr-2024 00:00Overcast Clouds31°C9 mph, S92%10000m1006hPa49%
20-Apr-2024 03:00Overcast Clouds29°C11 mph, S88%10000m1008hPa57%
20-Apr-2024 06:00Broken Clouds32°C11 mph, SW70%10000m1010hPa47%
20-Apr-2024 09:00Few Clouds35°C7 mph, S22%10000m1007hPa37%
20-Apr-2024 12:00Broken Clouds37°C7 mph, S55%10000m1004hPa32%
20-Apr-2024 15:00Light Rain36°C11 mph, S99%10000m1004hPa35%